sensor_id;sensor_type;location;lat;lon;timestamp;P1;durP1;ratioP1;P2;durP2;ratioP2
38513;SDS011;24282;48.400;10.808;2023-02-15T00:01:31;17.50;;;12.40;;
38513;SDS011;24282;48.400;10.808;2023-02-15T00:03:57;16.53;;;12.30;;
38513;SDS011;24282;48.400;10.808;2023-02-15T00:06:23;18.07;;;12.20;;
38513;SDS011;24282;48.400;10.808;2023-02-15T00:08:49;16.00;;;12.03;;
38513;SDS011;24282;48.400;10.808;2023-02-15T00:11:15;15.93;;;12.67;;
38513;SDS011;24282;48.400;10.808;2023-02-15T00:14:03;14.80;;;12.07;;
38513;SDS011;24282;48.400;10.808;2023-02-15T00:16:30;16.13;;;12.97;;
38513;SDS011;24282;48.400;10.808;2023-02-15T00:18:56;16.93;;;12.80;;
38513;SDS011;24282;48.400;10.808;2023-02-15T00:21:22;16.63;;;12.20;;
38513;SDS011;24282;48.400;10.808;2023-02-15T00:23:47;15.53;;;12.20;;
38513;SDS011;24282;48.400;10.808;2023-02-15T00:26:13;16.73;;;12.30;;
38513;SDS011;24282;48.400;10.808;2023-02-15T00:28:42;17.70;;;12.57;;
38513;SDS011;24282;48.400;10.808;2023-02-15T00:31:08;16.20;;;13.33;;
38513;SDS011;24282;48.400;10.808;2023-02-15T00:33:35;16.13;;;12.60;;
38513;SDS011;24282;48.400;10.808;2023-02-15T00:36:02;13.60;;;10.97;;
38513;SDS011;24282;48.400;10.808;2023-02-15T00:38:29;14.77;;;11.90;;
38513;SDS011;24282;48.400;10.808;2023-02-15T00:40:57;15.97;;;11.77;;
38513;SDS011;24282;48.400;10.808;2023-02-15T00:43:25;15.57;;;11.30;;
38513;SDS011;24282;48.400;10.808;2023-02-15T00:45:51;13.70;;;10.33;;
38513;SDS011;24282;48.400;10.808;2023-02-15T00:48:17;16.27;;;11.70;;
38513;SDS011;24282;48.400;10.808;2023-02-15T00:50:57;14.30;;;11.10;;
38513;SDS011;24282;48.400;10.808;2023-02-15T00:53:24;14.97;;;10.83;;
38513;SDS011;24282;48.400;10.808;2023-02-15T00:55:51;13.83;;;10.00;;
38513;SDS011;24282;48.400;10.808;2023-02-15T00:58:17;13.50;;;10.23;;
38513;SDS011;24282;48.400;10.808;2023-02-15T01:00:44;15.90;;;11.40;;
38513;SDS011;24282;48.400;10.808;2023-02-15T01:03:12;14.27;;;10.33;;
38513;SDS011;24282;48.400;10.808;2023-02-15T01:05:41;12.00;;;9.70;;
38513;SDS011;24282;48.400;10.808;2023-02-15T01:08:06;13.57;;;10.70;;
38513;SDS011;24282;48.400;10.808;2023-02-15T01:10:33;11.73;;;9.67;;
38513;SDS011;24282;48.400;10.808;2023-02-15T01:12:59;13.77;;;10.00;;
38513;SDS011;24282;48.400;10.808;2023-02-15T01:15:25;11.70;;;9.23;;
38513;SDS011;24282;48.400;10.808;2023-02-15T01:17:51;13.50;;;9.97;;
38513;SDS011;24282;48.400;10.808;2023-02-15T01:20:20;13.27;;;10.00;;
38513;SDS011;24282;48.400;10.808;2023-02-15T01:22:50;12.43;;;9.97;;
38513;SDS011;24282;48.400;10.808;2023-02-15T01:25:17;11.47;;;8.73;;
38513;SDS011;24282;48.400;10.808;2023-02-15T01:27:43;13.43;;;10.13;;
38513;SDS011;24282;48.400;10.808;2023-02-15T01:30:12;12.37;;;10.03;;
38513;SDS011;24282;48.400;10.808;2023-02-15T01:32:38;12.97;;;9.93;;
38513;SDS011;24282;48.400;10.808;2023-02-15T01:35:04;12.87;;;9.50;;
38513;SDS011;24282;48.400;10.808;2023-02-15T01:37:31;12.07;;;9.03;;
38513;SDS011;24282;48.400;10.808;2023-02-15T01:39:57;13.70;;;10.30;;
38513;SDS011;24282;48.400;10.808;2023-02-15T01:42:25;12.77;;;9.67;;
38513;SDS011;24282;48.400;10.808;2023-02-15T01:47:43;14.13;;;10.53;;
38513;SDS011;24282;48.400;10.808;2023-02-15T01:55:55;12.40;;;9.53;;
38513;SDS011;24282;48.400;10.808;2023-02-15T01:58:26;13.47;;;9.97;;
38513;SDS011;24282;48.400;10.808;2023-02-15T02:00:54;13.37;;;10.27;;
38513;SDS011;24282;48.400;10.808;2023-02-15T02:03:26;12.40;;;9.93;;
38513;SDS011;24282;48.400;10.808;2023-02-15T02:06:12;13.80;;;10.80;;
38513;SDS011;24282;48.400;10.808;2023-02-15T02:08:38;15.57;;;10.37;;
38513;SDS011;24282;48.400;10.808;2023-02-15T02:11:11;13.73;;;10.10;;
38513;SDS011;24282;48.400;10.808;2023-02-15T02:13:39;14.77;;;9.70;;
38513;SDS011;24282;48.400;10.808;2023-02-15T02:16:11;13.70;;;9.90;;
38513;SDS011;24282;48.400;10.808;2023-02-15T02:18:57;13.53;;;9.40;;
38513;SDS011;24282;48.400;10.808;2023-02-15T02:27:39;13.03;;;9.03;;
38513;SDS011;24282;48.400;10.808;2023-02-15T02:42:20;12.63;;;9.40;;
38513;SDS011;24282;48.400;10.808;2023-02-15T02:44:23;11.73;;;8.30;;
38513;SDS011;24282;48.400;10.808;2023-02-15T02:47:05;12.40;;;9.23;;
38513;SDS011;24282;48.400;10.808;2023-02-15T02:50:01;12.67;;;9.80;;
38513;SDS011;24282;48.400;10.808;2023-02-15T02:55:05;12.07;;;8.73;;
38513;SDS011;24282;48.400;10.808;2023-02-15T02:58:08;10.53;;;8.70;;
38513;SDS011;24282;48.400;10.808;2023-02-15T03:00:54;11.33;;;8.83;;
38513;SDS011;24282;48.400;10.808;2023-02-15T03:03:48;11.03;;;8.17;;
38513;SDS011;24282;48.400;10.808;2023-02-15T03:06:19;12.17;;;8.83;;
38513;SDS011;24282;48.400;10.808;2023-02-15T03:09:01;11.23;;;8.43;;
38513;SDS011;24282;48.400;10.808;2023-02-15T03:11:40;11.30;;;8.27;;
38513;SDS011;24282;48.400;10.808;2023-02-15T03:14:10;10.87;;;8.33;;
38513;SDS011;24282;48.400;10.808;2023-02-15T03:16:38;10.37;;;7.87;;
38513;SDS011;24282;48.400;10.808;2023-02-15T03:21:40;11.47;;;8.90;;
38513;SDS011;24282;48.400;10.808;2023-02-15T03:24:17;11.53;;;8.93;;
38513;SDS011;24282;48.400;10.808;2023-02-15T03:26:49;11.07;;;8.47;;
38513;SDS011;24282;48.400;10.808;2023-02-15T03:29:20;10.37;;;8.20;;
38513;SDS011;24282;48.400;10.808;2023-02-15T03:31:50;12.23;;;8.87;;
38513;SDS011;24282;48.400;10.808;2023-02-15T03:34:19;11.53;;;9.30;;
38513;SDS011;24282;48.400;10.808;2023-02-15T03:37:05;11.67;;;8.63;;
38513;SDS011;24282;48.400;10.808;2023-02-15T03:39:51;11.83;;;9.23;;
38513;SDS011;24282;48.400;10.808;2023-02-15T03:42:42;10.70;;;8.73;;
38513;SDS011;24282;48.400;10.808;2023-02-15T03:45:11;10.57;;;8.10;;
38513;SDS011;24282;48.400;10.808;2023-02-15T03:47:44;10.47;;;8.17;;
38513;SDS011;24282;48.400;10.808;2023-02-15T03:50:14;12.63;;;9.38;;
38513;SDS011;24282;48.400;10.808;2023-02-15T03:53:00;11.33;;;8.90;;
38513;SDS011;24282;48.400;10.808;2023-02-15T03:55:28;11.70;;;8.87;;
38513;SDS011;24282;48.400;10.808;2023-02-15T03:57:55;12.03;;;8.67;;
38513;SDS011;24282;48.400;10.808;2023-02-15T04:00:40;10.43;;;8.23;;
38513;SDS011;24282;48.400;10.808;2023-02-15T04:03:45;10.77;;;8.53;;
38513;SDS011;24282;48.400;10.808;2023-02-15T04:06:18;10.10;;;7.57;;
38513;SDS011;24282;48.400;10.808;2023-02-15T04:08:44;11.03;;;8.33;;
38513;SDS011;24282;48.400;10.808;2023-02-15T04:11:28;12.20;;;8.67;;
38513;SDS011;24282;48.400;10.808;2023-02-15T04:13:54;10.23;;;7.57;;
38513;SDS011;24282;48.400;10.808;2023-02-15T04:16:21;9.90;;;7.73;;
38513;SDS011;24282;48.400;10.808;2023-02-15T04:18:48;10.80;;;8.77;;
38513;SDS011;24282;48.400;10.808;2023-02-15T04:21:33;13.13;;;9.30;;
38513;SDS011;24282;48.400;10.808;2023-02-15T04:24:17;10.33;;;8.20;;
38513;SDS011;24282;48.400;10.808;2023-02-15T04:27:02;11.17;;;8.13;;
38513;SDS011;24282;48.400;10.808;2023-02-15T04:29:29;13.30;;;8.33;;
38513;SDS011;24282;48.400;10.808;2023-02-15T04:31:56;9.67;;;7.67;;
38513;SDS011;24282;48.400;10.808;2023-02-15T04:34:24;10.87;;;8.30;;
38513;SDS011;24282;48.400;10.808;2023-02-15T04:36:50;9.73;;;8.13;;
38513;SDS011;24282;48.400;10.808;2023-02-15T04:39:16;11.93;;;9.40;;
38513;SDS011;24282;48.400;10.808;2023-02-15T04:41:43;11.50;;;8.67;;
38513;SDS011;24282;48.400;10.808;2023-02-15T04:44:10;12.63;;;9.57;;
38513;SDS011;24282;48.400;10.808;2023-02-15T04:46:36;10.87;;;8.77;;
38513;SDS011;24282;48.400;10.808;2023-02-15T04:49:01;10.53;;;8.60;;
38513;SDS011;24282;48.400;10.808;2023-02-15T04:51:27;13.17;;;9.80;;
38513;SDS011;24282;48.400;10.808;2023-02-15T04:53:53;13.57;;;10.27;;
38513;SDS011;24282;48.400;10.808;2023-02-15T04:56:19;12.87;;;9.90;;
38513;SDS011;24282;48.400;10.808;2023-02-15T04:58:45;12.60;;;9.60;;
38513;SDS011;24282;48.400;10.808;2023-02-15T05:01:11;12.13;;;9.17;;
38513;SDS011;24282;48.400;10.808;2023-02-15T05:03:38;15.40;;;11.80;;
38513;SDS011;24282;48.400;10.808;2023-02-15T05:06:03;14.80;;;10.33;;
38513;SDS011;24282;48.400;10.808;2023-02-15T05:08:30;12.13;;;9.40;;
38513;SDS011;24282;48.400;10.808;2023-02-15T05:10:56;13.17;;;10.10;;
38513;SDS011;24282;48.400;10.808;2023-02-15T05:13:22;17.63;;;10.57;;
38513;SDS011;24282;48.400;10.808;2023-02-15T05:15:48;13.83;;;10.87;;
38513;SDS011;24282;48.400;10.808;2023-02-15T05:18:16;12.90;;;9.97;;
38513;SDS011;24282;48.400;10.808;2023-02-15T05:20:43;12.20;;;9.70;;
38513;SDS011;24282;48.400;10.808;2023-02-15T05:23:09;12.37;;;9.63;;
38513;SDS011;24282;48.400;10.808;2023-02-15T05:25:35;13.60;;;10.63;;
38513;SDS011;24282;48.400;10.808;2023-02-15T05:28:19;14.83;;;10.80;;
38513;SDS011;24282;48.400;10.808;2023-02-15T05:30:47;13.77;;;10.70;;
38513;SDS011;24282;48.400;10.808;2023-02-15T05:33:14;14.33;;;10.70;;
38513;SDS011;24282;48.400;10.808;2023-02-15T05:35:40;14.27;;;10.93;;
38513;SDS011;24282;48.400;10.808;2023-02-15T05:38:06;13.93;;;10.97;;
38513;SDS011;24282;48.400;10.808;2023-02-15T05:40:31;13.10;;;10.33;;
38513;SDS011;24282;48.400;10.808;2023-02-15T05:42:57;14.80;;;11.17;;
38513;SDS011;24282;48.400;10.808;2023-02-15T05:45:23;13.43;;;10.97;;
38513;SDS011;24282;48.400;10.808;2023-02-15T05:47:49;13.90;;;10.70;;
38513;SDS011;24282;48.400;10.808;2023-02-15T05:50:15;15.50;;;11.47;;
38513;SDS011;24282;48.400;10.808;2023-02-15T05:52:41;13.37;;;10.40;;
38513;SDS011;24282;48.400;10.808;2023-02-15T05:55:06;13.60;;;10.37;;
38513;SDS011;24282;48.400;10.808;2023-02-15T05:57:34;12.57;;;10.27;;
38513;SDS011;24282;48.400;10.808;2023-02-15T06:00:01;12.80;;;9.90;;
38513;SDS011;24282;48.400;10.808;2023-02-15T06:02:37;12.73;;;9.83;;
38513;SDS011;24282;48.400;10.808;2023-02-15T06:05:04;13.77;;;10.30;;
38513;SDS011;24282;48.400;10.808;2023-02-15T06:07:30;15.77;;;11.20;;
38513;SDS011;24282;48.400;10.808;2023-02-15T06:09:56;15.13;;;11.70;;
38513;SDS011;24282;48.400;10.808;2023-02-15T06:12:22;15.27;;;11.60;;
38513;SDS011;24282;48.400;10.808;2023-02-15T06:14:48;15.50;;;11.77;;
38513;SDS011;24282;48.400;10.808;2023-02-15T06:17:14;15.10;;;12.07;;
38513;SDS011;24282;48.400;10.808;2023-02-15T06:19:39;13.77;;;10.13;;
38513;SDS011;24282;48.400;10.808;2023-02-15T06:22:05;14.17;;;10.93;;
38513;SDS011;24282;48.400;10.808;2023-02-15T06:24:31;13.97;;;10.73;;
38513;SDS011;24282;48.400;10.808;2023-02-15T06:26:57;15.70;;;11.13;;
38513;SDS011;24282;48.400;10.808;2023-02-15T06:29:23;15.17;;;11.60;;
38513;SDS011;24282;48.400;10.808;2023-02-15T06:31:48;14.07;;;10.50;;
38513;SDS011;24282;48.400;10.808;2023-02-15T06:34:14;13.43;;;9.80;;
38513;SDS011;24282;48.400;10.808;2023-02-15T06:36:40;13.10;;;10.73;;
38513;SDS011;24282;48.400;10.808;2023-02-15T06:39:06;12.90;;;10.97;;
38513;SDS011;24282;48.400;10.808;2023-02-15T06:41:32;14.43;;;11.03;;
38513;SDS011;24282;48.400;10.808;2023-02-15T06:43:58;14.37;;;11.33;;
38513;SDS011;24282;48.400;10.808;2023-02-15T06:46:24;14.40;;;10.43;;
38513;SDS011;24282;48.400;10.808;2023-02-15T06:48:49;12.67;;;10.30;;
38513;SDS011;24282;48.400;10.808;2023-02-15T06:51:15;15.50;;;11.77;;
38513;SDS011;24282;48.400;10.808;2023-02-15T06:53:41;13.53;;;10.87;;
38513;SDS011;24282;48.400;10.808;2023-02-15T06:56:08;14.60;;;10.77;;
38513;SDS011;24282;48.400;10.808;2023-02-15T06:58:38;14.93;;;11.73;;
38513;SDS011;24282;48.400;10.808;2023-02-15T07:01:05;14.03;;;11.03;;
38513;SDS011;24282;48.400;10.808;2023-02-15T07:03:31;15.57;;;12.13;;
38513;SDS011;24282;48.400;10.808;2023-02-15T07:05:58;15.13;;;11.13;;
38513;SDS011;24282;48.400;10.808;2023-02-15T07:08:26;15.13;;;11.43;;
38513;SDS011;24282;48.400;10.808;2023-02-15T07:10:52;15.17;;;11.73;;
38513;SDS011;24282;48.400;10.808;2023-02-15T07:13:19;15.87;;;11.60;;
38513;SDS011;24282;48.400;10.808;2023-02-15T07:15:46;15.73;;;11.77;;
38513;SDS011;24282;48.400;10.808;2023-02-15T07:18:12;15.30;;;11.37;;
38513;SDS011;24282;48.400;10.808;2023-02-15T07:20:38;15.53;;;12.50;;
38513;SDS011;24282;48.400;10.808;2023-02-15T07:23:07;14.33;;;11.23;;
38513;SDS011;24282;48.400;10.808;2023-02-15T07:25:33;16.57;;;12.00;;
38513;SDS011;24282;48.400;10.808;2023-02-15T07:28:00;19.77;;;14.70;;
38513;SDS011;24282;48.400;10.808;2023-02-15T07:30:27;22.47;;;16.07;;
38513;SDS011;24282;48.400;10.808;2023-02-15T07:32:55;20.07;;;14.53;;
38513;SDS011;24282;48.400;10.808;2023-02-15T07:35:49;17.00;;;12.13;;
38513;SDS011;24282;48.400;10.808;2023-02-15T07:38:16;15.87;;;12.20;;
38513;SDS011;24282;48.400;10.808;2023-02-15T07:40:42;16.93;;;12.53;;
38513;SDS011;24282;48.400;10.808;2023-02-15T07:43:09;14.50;;;11.43;;
38513;SDS011;24282;48.400;10.808;2023-02-15T07:45:35;15.80;;;12.37;;
38513;SDS011;24282;48.400;10.808;2023-02-15T07:48:02;18.20;;;13.33;;
38513;SDS011;24282;48.400;10.808;2023-02-15T07:50:28;17.43;;;13.37;;
38513;SDS011;24282;48.400;10.808;2023-02-15T07:52:54;16.50;;;11.60;;
38513;SDS011;24282;48.400;10.808;2023-02-15T07:55:20;16.53;;;12.20;;
38513;SDS011;24282;48.400;10.808;2023-02-15T07:57:46;15.80;;;11.70;;
38513;SDS011;24282;48.400;10.808;2023-02-15T08:00:14;17.10;;;12.27;;
38513;SDS011;24282;48.400;10.808;2023-02-15T08:02:42;16.23;;;11.83;;
38513;SDS011;24282;48.400;10.808;2023-02-15T08:05:12;15.40;;;11.93;;
38513;SDS011;24282;48.400;10.808;2023-02-15T08:07:38;16.60;;;12.23;;
38513;SDS011;24282;48.400;10.808;2023-02-15T08:10:04;15.30;;;11.83;;
38513;SDS011;24282;48.400;10.808;2023-02-15T08:12:30;16.17;;;12.13;;
38513;SDS011;24282;48.400;10.808;2023-02-15T08:14:55;16.33;;;12.13;;
38513;SDS011;24282;48.400;10.808;2023-02-15T08:17:21;20.57;;;13.83;;
38513;SDS011;24282;48.400;10.808;2023-02-15T08:19:47;27.23;;;18.40;;
38513;SDS011;24282;48.400;10.808;2023-02-15T08:22:13;36.63;;;23.77;;
38513;SDS011;24282;48.400;10.808;2023-02-15T08:24:40;55.57;;;33.07;;
38513;SDS011;24282;48.400;10.808;2023-02-15T08:27:07;52.57;;;32.60;;
38513;SDS011;24282;48.400;10.808;2023-02-15T08:29:40;29.63;;;19.70;;
38513;SDS011;24282;48.400;10.808;2023-02-15T08:32:08;22.43;;;15.57;;
38513;SDS011;24282;48.400;10.808;2023-02-15T08:34:36;17.83;;;13.63;;
38513;SDS011;24282;48.400;10.808;2023-02-15T08:37:04;16.83;;;12.57;;
38513;SDS011;24282;48.400;10.808;2023-02-15T08:39:31;19.27;;;14.33;;
38513;SDS011;24282;48.400;10.808;2023-02-15T08:41:57;17.93;;;14.50;;
38513;SDS011;24282;48.400;10.808;2023-02-15T08:44:22;18.03;;;14.13;;
38513;SDS011;24282;48.400;10.808;2023-02-15T08:46:48;20.37;;;15.30;;
38513;SDS011;24282;48.400;10.808;2023-02-15T08:49:16;16.83;;;13.83;;
38513;SDS011;24282;48.400;10.808;2023-02-15T08:51:47;18.33;;;14.17;;
38513;SDS011;24282;48.400;10.808;2023-02-15T08:54:17;16.37;;;12.43;;
38513;SDS011;24282;48.400;10.808;2023-02-15T08:56:45;16.67;;;12.70;;
38513;SDS011;24282;48.400;10.808;2023-02-15T08:59:14;15.97;;;12.30;;
38513;SDS011;24282;48.400;10.808;2023-02-15T09:01:42;15.87;;;12.67;;
38513;SDS011;24282;48.400;10.808;2023-02-15T09:04:08;17.30;;;13.30;;
38513;SDS011;24282;48.400;10.808;2023-02-15T09:06:35;16.47;;;13.03;;
38513;SDS011;24282;48.400;10.808;2023-02-15T09:09:02;18.00;;;13.67;;
38513;SDS011;24282;48.400;10.808;2023-02-15T09:11:36;17.10;;;12.80;;
38513;SDS011;24282;48.400;10.808;2023-02-15T09:14:04;19.47;;;14.90;;
38513;SDS011;24282;48.400;10.808;2023-02-15T09:16:33;15.90;;;12.97;;
38513;SDS011;24282;48.400;10.808;2023-02-15T09:19:01;18.17;;;13.50;;
38513;SDS011;24282;48.400;10.808;2023-02-15T09:21:27;16.73;;;12.27;;
38513;SDS011;24282;48.400;10.808;2023-02-15T09:23:57;16.43;;;12.23;;
38513;SDS011;24282;48.400;10.808;2023-02-15T09:26:25;14.43;;;11.50;;
38513;SDS011;24282;48.400;10.808;2023-02-15T09:28:53;16.97;;;12.07;;
38513;SDS011;24282;48.400;10.808;2023-02-15T09:31:22;18.03;;;13.63;;
38513;SDS011;24282;48.400;10.808;2023-02-15T09:33:49;15.27;;;11.43;;
38513;SDS011;24282;48.400;10.808;2023-02-15T09:41:30;15.13;;;11.63;;
38513;SDS011;24282;48.400;10.808;2023-02-15T09:55:37;13.50;;;10.67;;
38513;SDS011;24282;48.400;10.808;2023-02-15T10:01:14;12.67;;;10.60;;
38513;SDS011;24282;48.400;10.808;2023-02-15T10:28:00;14.70;;;11.67;;
38513;SDS011;24282;48.400;10.808;2023-02-15T10:30:49;13.47;;;10.70;;
38513;SDS011;24282;48.400;10.808;2023-02-15T10:33:36;13.77;;;10.60;;
38513;SDS011;24282;48.400;10.808;2023-02-15T10:39:10;17.23;;;12.03;;
38513;SDS011;24282;48.400;10.808;2023-02-15T10:42:08;14.90;;;12.03;;
38513;SDS011;24282;48.400;10.808;2023-02-15T10:44:56;15.13;;;11.57;;
38513;SDS011;24282;48.400;10.808;2023-02-15T10:53:13;18.73;;;12.07;;
38513;SDS011;24282;48.400;10.808;2023-02-15T11:00:48;12.73;;;10.60;;
38513;SDS011;24282;48.400;10.808;2023-02-15T11:06:03;14.67;;;12.47;;
38513;SDS011;24282;48.400;10.808;2023-02-15T11:09:17;15.47;;;12.43;;
38513;SDS011;24282;48.400;10.808;2023-02-15T11:11:26;14.83;;;11.90;;
38513;SDS011;24282;48.400;10.808;2023-02-15T11:13:57;15.17;;;12.20;;
38513;SDS011;24282;48.400;10.808;2023-02-15T11:17:01;15.30;;;12.80;;
38513;SDS011;24282;48.400;10.808;2023-02-15T11:22:01;25.67;;;16.40;;
38513;SDS011;24282;48.400;10.808;2023-02-15T11:24:30;24.87;;;16.37;;
38513;SDS011;24282;48.400;10.808;2023-02-15T11:27:01;19.90;;;14.20;;
38513;SDS011;24282;48.400;10.808;2023-02-15T11:29:32;18.43;;;13.47;;
38513;SDS011;24282;48.400;10.808;2023-02-15T11:37:23;17.73;;;13.07;;
38513;SDS011;24282;48.400;10.808;2023-02-15T11:39:53;18.42;;;14.27;;
38513;SDS011;24282;48.400;10.808;2023-02-15T11:42:20;17.97;;;13.87;;
38513;SDS011;24282;48.400;10.808;2023-02-15T11:47:25;17.33;;;13.97;;
38513;SDS011;24282;48.400;10.808;2023-02-15T11:49:51;16.17;;;13.13;;
38513;SDS011;24282;48.400;10.808;2023-02-15T11:52:17;20.33;;;15.03;;
38513;SDS011;24282;48.400;10.808;2023-02-15T11:54:47;19.77;;;14.77;;
38513;SDS011;24282;48.400;10.808;2023-02-15T11:57:36;16.63;;;14.00;;
38513;SDS011;24282;48.400;10.808;2023-02-15T12:00:20;16.73;;;13.87;;
38513;SDS011;24282;48.400;10.808;2023-02-15T12:03:01;17.50;;;14.47;;
38513;SDS011;24282;48.400;10.808;2023-02-15T12:05:32;18.67;;;15.30;;
38513;SDS011;24282;48.400;10.808;2023-02-15T12:08:09;19.97;;;14.40;;
38513;SDS011;24282;48.400;10.808;2023-02-15T12:10:46;18.43;;;13.60;;
38513;SDS011;24282;48.400;10.808;2023-02-15T12:13:27;16.90;;;13.57;;
38513;SDS011;24282;48.400;10.808;2023-02-15T12:15:54;15.73;;;13.27;;
38513;SDS011;24282;48.400;10.808;2023-02-15T12:18:38;17.53;;;13.10;;
38513;SDS011;24282;48.400;10.808;2023-02-15T12:21:07;14.93;;;12.53;;
38513;SDS011;24282;48.400;10.808;2023-02-15T12:23:40;16.60;;;13.47;;
38513;SDS011;24282;48.400;10.808;2023-02-15T12:26:27;15.80;;;12.40;;
38513;SDS011;24282;48.400;10.808;2023-02-15T12:28:59;16.73;;;12.43;;
38513;SDS011;24282;48.400;10.808;2023-02-15T12:31:39;14.77;;;13.17;;
38513;SDS011;24282;48.400;10.808;2023-02-15T12:34:11;16.63;;;13.17;;
38513;SDS011;24282;48.400;10.808;2023-02-15T12:36:46;16.97;;;13.53;;
38513;SDS011;24282;48.400;10.808;2023-02-15T12:39:17;12.73;;;11.30;;
38513;SDS011;24282;48.400;10.808;2023-02-15T12:44:20;15.93;;;12.23;;
38513;SDS011;24282;48.400;10.808;2023-02-15T12:49:42;18.40;;;14.23;;
38513;SDS011;24282;48.400;10.808;2023-02-15T12:52:43;17.30;;;12.63;;
38513;SDS011;24282;48.400;10.808;2023-02-15T12:55:11;16.90;;;12.53;;
38513;SDS011;24282;48.400;10.808;2023-02-15T12:57:47;14.70;;;12.37;;
38513;SDS011;24282;48.400;10.808;2023-02-15T13:05:20;17.57;;;13.33;;
38513;SDS011;24282;48.400;10.808;2023-02-15T13:07:59;14.50;;;11.63;;
38513;SDS011;24282;48.400;10.808;2023-02-15T13:13:26;17.13;;;11.93;;
38513;SDS011;24282;48.400;10.808;2023-02-15T13:16:15;14.97;;;11.93;;
38513;SDS011;24282;48.400;10.808;2023-02-15T13:18:44;13.73;;;11.17;;
38513;SDS011;24282;48.400;10.808;2023-02-15T13:21:13;15.90;;;12.83;;
38513;SDS011;24282;48.400;10.808;2023-02-15T13:23:46;13.73;;;11.87;;
38513;SDS011;24282;48.400;10.808;2023-02-15T13:26:17;15.30;;;12.53;;
38513;SDS011;24282;48.400;10.808;2023-02-15T13:28:46;14.83;;;12.63;;
38513;SDS011;24282;48.400;10.808;2023-02-15T13:31:15;19.07;;;13.40;;
38513;SDS011;24282;48.400;10.808;2023-02-15T13:34:27;15.63;;;12.93;;
38513;SDS011;24282;48.400;10.808;2023-02-15T13:47:40;17.73;;;12.53;;
38513;SDS011;24282;48.400;10.808;2023-02-15T13:50:32;15.63;;;12.73;;
38513;SDS011;24282;48.400;10.808;2023-02-15T14:06:37;18.10;;;14.63;;
38513;SDS011;24282;48.400;10.808;2023-02-15T14:21:06;19.00;;;15.75;;
38513;SDS011;24282;48.400;10.808;2023-02-15T14:26:21;18.65;;;15.18;;
38513;SDS011;24282;48.400;10.808;2023-02-15T14:31:41;18.53;;;15.47;;
38513;SDS011;24282;48.400;10.808;2023-02-15T14:34:23;23.17;;;17.00;;
38513;SDS011;24282;48.400;10.808;2023-02-15T14:36:52;20.70;;;16.90;;
38513;SDS011;24282;48.400;10.808;2023-02-15T14:39:37;20.90;;;16.03;;
38513;SDS011;24282;48.400;10.808;2023-02-15T14:42:34;18.63;;;15.63;;
38513;SDS011;24282;48.400;10.808;2023-02-15T14:45:04;22.43;;;16.63;;
38513;SDS011;24282;48.400;10.808;2023-02-15T14:48:12;22.13;;;16.80;;
38513;SDS011;24282;48.400;10.808;2023-02-15T14:50:50;20.63;;;15.80;;
38513;SDS011;24282;48.400;10.808;2023-02-15T15:03:53;22.08;;;16.90;;
38513;SDS011;24282;48.400;10.808;2023-02-15T15:06:28;20.73;;;17.30;;
38513;SDS011;24282;48.400;10.808;2023-02-15T15:09:00;22.93;;;18.13;;
38513;SDS011;24282;48.400;10.808;2023-02-15T15:11:48;24.67;;;19.67;;
38513;SDS011;24282;48.400;10.808;2023-02-15T15:16:56;25.00;;;19.63;;
38513;SDS011;24282;48.400;10.808;2023-02-15T15:22:20;29.47;;;22.73;;
38513;SDS011;24282;48.400;10.808;2023-02-15T15:24:47;25.47;;;21.80;;
38513;SDS011;24282;48.400;10.808;2023-02-15T15:30:02;29.27;;;24.00;;
38513;SDS011;24282;48.400;10.808;2023-02-15T15:49:02;30.73;;;24.37;;
38513;SDS011;24282;48.400;10.808;2023-02-15T15:51:37;30.53;;;23.70;;
38513;SDS011;24282;48.400;10.808;2023-02-15T15:54:11;33.23;;;25.00;;
38513;SDS011;24282;48.400;10.808;2023-02-15T15:56:40;30.77;;;25.47;;
38513;SDS011;24282;48.400;10.808;2023-02-15T15:59:22;32.10;;;24.93;;
38513;SDS011;24282;48.400;10.808;2023-02-15T16:01:51;32.57;;;26.00;;
38513;SDS011;24282;48.400;10.808;2023-02-15T16:04:27;32.63;;;25.47;;
38513;SDS011;24282;48.400;10.808;2023-02-15T16:06:56;32.77;;;26.03;;
38513;SDS011;24282;48.400;10.808;2023-02-15T16:09:24;30.30;;;24.90;;
38513;SDS011;24282;48.400;10.808;2023-02-15T16:11:52;32.80;;;25.33;;
38513;SDS011;24282;48.400;10.808;2023-02-15T16:14:30;29.47;;;24.07;;
38513;SDS011;24282;48.400;10.808;2023-02-15T16:17:00;31.33;;;25.63;;
38513;SDS011;24282;48.400;10.808;2023-02-15T16:19:38;30.93;;;25.30;;
38513;SDS011;24282;48.400;10.808;2023-02-15T16:22:18;32.23;;;25.43;;
38513;SDS011;24282;48.400;10.808;2023-02-15T16:27:39;31.67;;;25.47;;
38513;SDS011;24282;48.400;10.808;2023-02-15T16:33:14;29.60;;;25.33;;
38513;SDS011;24282;48.400;10.808;2023-02-15T16:35:41;31.33;;;24.53;;
38513;SDS011;24282;48.400;10.808;2023-02-15T16:38:18;31.00;;;25.30;;
38513;SDS011;24282;48.400;10.808;2023-02-15T16:40:52;33.47;;;24.73;;
38513;SDS011;24282;48.400;10.808;2023-02-15T16:43:26;31.67;;;24.07;;
38513;SDS011;24282;48.400;10.808;2023-02-15T16:45:58;29.70;;;24.63;;
38513;SDS011;24282;48.400;10.808;2023-02-15T16:48:29;33.13;;;25.43;;
38513;SDS011;24282;48.400;10.808;2023-02-15T16:50:57;29.20;;;24.53;;
38513;SDS011;24282;48.400;10.808;2023-02-15T16:53:25;32.57;;;24.57;;
38513;SDS011;24282;48.400;10.808;2023-02-15T16:55:56;31.13;;;24.27;;
38513;SDS011;24282;48.400;10.808;2023-02-15T16:58:45;30.93;;;24.43;;
38513;SDS011;24282;48.400;10.808;2023-02-15T17:01:14;32.50;;;24.43;;
38513;SDS011;24282;48.400;10.808;2023-02-15T17:03:44;31.73;;;23.30;;
38513;SDS011;24282;48.400;10.808;2023-02-15T17:06:24;32.23;;;25.40;;
38513;SDS011;24282;48.400;10.808;2023-02-15T17:08:51;32.50;;;25.67;;
38513;SDS011;24282;48.400;10.808;2023-02-15T17:11:18;30.60;;;23.90;;
38513;SDS011;24282;48.400;10.808;2023-02-15T17:19:01;32.33;;;25.17;;
38513;SDS011;24282;48.400;10.808;2023-02-15T17:21:34;33.40;;;23.88;;
38513;SDS011;24282;48.400;10.808;2023-02-15T17:24:05;32.40;;;24.00;;
38513;SDS011;24282;48.400;10.808;2023-02-15T17:26:39;28.43;;;23.20;;
38513;SDS011;24282;48.400;10.808;2023-02-15T17:29:14;29.63;;;23.00;;
38513;SDS011;24282;48.400;10.808;2023-02-15T17:31:58;33.78;;;24.25;;
38513;SDS011;24282;48.400;10.808;2023-02-15T17:42:51;27.07;;;20.87;;
38513;SDS011;24282;48.400;10.808;2023-02-15T17:45:17;30.50;;;22.13;;
38513;SDS011;24282;48.400;10.808;2023-02-15T17:47:44;25.77;;;20.17;;
38513;SDS011;24282;48.400;10.808;2023-02-15T17:50:30;28.53;;;21.27;;
38513;SDS011;24282;48.400;10.808;2023-02-15T17:52:56;28.23;;;20.73;;
38513;SDS011;24282;48.400;10.808;2023-02-15T17:55:23;29.07;;;21.20;;
38513;SDS011;24282;48.400;10.808;2023-02-15T18:00:39;28.85;;;19.88;;
38513;SDS011;24282;48.400;10.808;2023-02-15T18:03:38;26.02;;;21.75;;
38513;SDS011;24282;48.400;10.808;2023-02-15T18:06:31;26.93;;;21.87;;
38513;SDS011;24282;48.400;10.808;2023-02-15T18:09:17;26.60;;;20.60;;
38513;SDS011;24282;48.400;10.808;2023-02-15T18:12:25;26.77;;;20.03;;